createdAt,value
2019-02-21T00:00:58.952Z,54.11
2019-02-21T00:05:06.994Z,54.30
2019-02-21T00:09:14.799Z,54.58
2019-02-21T00:13:23.013Z,54.30
2019-02-21T00:17:30.736Z,55.43
2019-02-21T00:21:38.925Z,56.08
2019-02-21T00:25:46.665Z,56.58
2019-02-21T00:29:54.246Z,55.84
2019-02-21T00:34:02.163Z,55.96
2019-02-21T00:38:10.093Z,56.52
2019-02-21T00:42:17.805Z,57.13
2019-02-21T00:46:26.101Z,56.38
2019-02-21T00:50:35.147Z,56.25
2019-02-21T00:54:42.868Z,56.60
2019-02-21T00:58:51.093Z,57.31
2019-02-21T01:02:58.923Z,58.03
2019-02-21T01:07:07.304Z,57.43
2019-02-21T01:11:15.362Z,57.47
2019-02-21T01:15:23.551Z,58.34
2019-02-21T01:19:31.543Z,58.44
2019-02-21T01:23:39.670Z,58.22
2019-02-21T01:27:47.590Z,57.96
2019-02-21T01:31:55.816Z,58.10
2019-02-21T01:36:03.622Z,57.98
2019-02-21T01:40:12.574Z,57.32
2019-02-21T01:44:20.865Z,57.21
2019-02-21T01:48:29.694Z,57.28
2019-02-21T01:52:37.823Z,56.93
2019-02-21T01:56:45.568Z,57.27
2019-02-21T02:00:54.255Z,57.05
2019-02-21T02:05:01.990Z,57.10
2019-02-21T02:09:12.472Z,56.94
2019-02-21T02:13:24.697Z,57.37
2019-02-21T02:17:30.628Z,57.38
2019-02-21T02:21:38.747Z,57.42
2019-02-21T02:25:46.960Z,57.49
2019-02-21T02:29:54.976Z,58.00
2019-02-21T02:34:02.679Z,57.95
2019-02-21T02:38:10.857Z,57.85
2019-02-21T02:42:19.539Z,58.22
2019-02-21T02:46:27.353Z,58.34
2019-02-21T02:50:35.068Z,58.67
2019-02-21T02:54:44.014Z,58.28
2019-02-21T02:58:52.404Z,58.06
2019-02-21T03:03:00.127Z,57.61
2019-02-21T03:07:08.392Z,57.85
2019-02-21T03:11:16.531Z,57.85
2019-02-21T03:15:24.262Z,57.96
2019-02-21T03:19:31.976Z,58.16
2019-02-21T03:23:40.210Z,57.87
2019-02-21T03:27:47.641Z,57.94
2019-02-21T03:31:56.282Z,57.96
2019-02-21T03:36:04.271Z,58.19
2019-02-21T03:40:12.356Z,58.24
2019-02-21T03:44:20.354Z,57.72
2019-02-21T03:48:28.168Z,56.62
2019-02-21T03:52:35.996Z,56.64
2019-02-21T03:56:44.237Z,56.63
2019-02-21T04:00:52.159Z,56.64
2019-02-21T04:05:00.368Z,56.03
2019-02-21T04:09:10.316Z,56.08
2019-02-21T04:13:17.918Z,57.08
2019-02-21T04:17:26.141Z,56.14
2019-02-21T04:21:34.453Z,56.21
2019-02-21T04:25:42.077Z,57.53
2019-02-21T04:29:49.963Z,57.14
2019-02-21T04:33:58.093Z,57.70
2019-02-21T04:38:05.934Z,56.79
2019-02-21T04:42:14.158Z,56.64
2019-02-21T04:46:22.007Z,56.49
2019-02-21T04:50:29.809Z,56.37
2019-02-21T04:54:37.970Z,55.74
2019-02-21T04:58:45.770Z,56.80
2019-02-21T05:02:53.923Z,56.07
2019-02-21T05:07:01.885Z,57.84
2019-02-21T05:11:09.801Z,56.68
2019-02-21T05:15:17.732Z,56.62
2019-02-21T05:19:25.447Z,57.97
2019-02-21T05:23:33.550Z,57.75
2019-02-21T05:27:47.693Z,58.11
2019-02-21T05:32:40.947Z,59.21
2019-02-21T05:37:01.718Z,59.09
2019-02-21T05:41:23.457Z,59.31
2019-02-21T05:45:53.301Z,59.21
2019-02-21T05:50:34.698Z,58.75
2019-02-21T05:55:04.131Z,58.19
2019-02-21T05:59:44.423Z,57.60
2019-02-21T06:04:19.584Z,57.14
2019-02-21T06:08:44.113Z,57.16
2019-02-21T06:13:03.817Z,57.63
2019-02-21T06:17:30.219Z,57.14
2019-02-21T06:22:10.492Z,56.88
2019-02-21T06:26:23.661Z,57.03
2019-02-21T06:30:47.147Z,57.84
2019-02-21T06:34:54.968Z,58.38
2019-02-21T06:39:02.713Z,57.08
2019-02-21T06:43:11.152Z,62.31
2019-02-21T06:47:18.973Z,56.08
2019-02-21T06:51:26.887Z,55.39
2019-02-21T06:55:34.695Z,55.02
2019-02-21T06:59:45.521Z,55.15
2019-02-21T07:03:53.886Z,55.05
2019-02-21T07:08:02.011Z,54.62
2019-02-21T07:12:10.673Z,54.80
2019-02-21T07:16:18.855Z,52.84
2019-02-21T07:20:28.922Z,52.50
2019-02-21T07:24:38.702Z,51.76
2019-02-21T07:28:47.127Z,49.99
2019-02-21T07:32:58.120Z,48.81
2019-02-21T07:37:18.683Z,46.93
2019-02-21T07:41:22.002Z,46.90
2019-02-21T07:45:29.702Z,47.46
2019-02-21T07:49:37.824Z,48.47
2019-02-21T07:53:46.113Z,48.38
2019-02-21T07:57:53.842Z,48.88
2019-02-21T08:02:01.877Z,49.97
2019-02-21T08:06:09.983Z,48.84
2019-02-21T08:10:18.092Z,48.44
2019-02-21T08:14:26.008Z,48.67
2019-02-21T08:18:34.132Z,49.01
2019-02-21T08:22:41.747Z,48.74
2019-02-21T08:26:49.653Z,48.57
2019-02-21T08:30:58.259Z,47.67
2019-02-21T08:35:06.957Z,47.62
2019-02-21T08:39:15.059Z,48.53
2019-02-21T08:43:22.968Z,47.67
2019-02-21T08:47:31.180Z,48.01
2019-02-21T08:51:38.976Z,54.40
2019-02-21T08:55:46.604Z,47.66
2019-02-21T08:59:54.837Z,47.00
2019-02-21T09:04:10.506Z,45.87
2019-02-21T09:08:12.330Z,46.92
2019-02-21T09:12:20.524Z,46.32
2019-02-21T09:16:28.592Z,45.59
2019-02-21T09:20:36.208Z,45.28
2019-02-21T09:24:44.448Z,45.08
2019-02-21T09:28:52.686Z,44.13
2019-02-21T09:33:00.471Z,43.89
2019-02-21T09:37:08.386Z,43.37
2019-02-21T09:41:16.192Z,44.27
2019-02-21T09:45:24.119Z,43.49
2019-02-21T09:49:31.930Z,42.87
2019-02-21T09:53:39.623Z,40.15
2019-02-21T09:57:47.454Z,39.69
2019-02-21T10:01:57.513Z,39.84
2019-02-21T10:06:04.952Z,41.10
2019-02-21T10:10:14.777Z,39.46
2019-02-21T10:14:22.602Z,39.12
2019-02-21T10:18:30.262Z,38.89
2019-02-21T10:22:38.597Z,39.51
2019-02-21T10:26:46.932Z,38.99
2019-02-21T10:30:54.722Z,40.97
2019-02-21T10:35:02.772Z,40.37
2019-02-21T10:39:11.384Z,40.18
2019-02-21T10:43:19.185Z,38.91
2019-02-21T10:47:27.116Z,38.37
2019-02-21T10:51:35.187Z,39.50
2019-02-21T10:55:42.953Z,37.85
2019-02-21T10:59:51.334Z,38.11
2019-02-21T11:03:59.046Z,37.93
2019-02-21T11:08:06.755Z,37.19
2019-02-21T11:12:15.061Z,36.99
2019-02-21T11:16:22.891Z,36.31
2019-02-21T11:20:31.005Z,36.40
2019-02-21T11:24:39.243Z,35.71
2019-02-21T11:28:47.359Z,33.83
2019-02-21T11:32:55.464Z,34.95
2019-02-21T11:37:03.681Z,35.60
2019-02-21T11:41:11.390Z,33.96
2019-02-21T11:45:20.035Z,34.61
2019-02-21T11:49:27.826Z,34.42
2019-02-21T11:53:38.004Z,35.14
2019-02-21T11:57:45.787Z,35.76
2019-02-21T12:01:53.622Z,36.58
2019-02-21T12:06:01.813Z,36.25
2019-02-21T12:10:10.578Z,35.76
2019-02-21T12:14:18.355Z,32.28
2019-02-21T12:18:27.342Z,32.28
2019-02-21T12:22:35.365Z,32.47
2019-02-21T12:26:43.137Z,32.33
2019-02-21T12:30:51.376Z,31.97
2019-02-21T12:34:59.357Z,36.07
2019-02-21T12:39:07.881Z,35.99
2019-02-21T12:43:16.379Z,35.93
2019-02-21T12:47:24.336Z,36.87
2019-02-21T12:51:31.964Z,37.45
2019-02-21T12:55:39.860Z,38.61
2019-02-21T12:59:48.148Z,38.73
2019-02-21T13:03:57.008Z,39.18
2019-02-21T13:08:05.526Z,39.99
2019-02-21T13:12:13.337Z,40.55
2019-02-21T13:16:21.150Z,40.37
2019-02-21T13:20:29.053Z,39.86
2019-02-21T13:24:36.764Z,40.06
2019-02-21T13:28:44.776Z,39.81
2019-02-21T13:32:52.814Z,39.64
2019-02-21T13:37:00.421Z,40.07
2019-02-21T13:41:08.529Z,40.36
2019-02-21T13:45:17.798Z,41.22
2019-02-21T13:49:25.902Z,41.06
2019-02-21T13:53:33.706Z,40.24
2019-02-21T13:57:41.323Z,40.17
2019-02-21T14:01:50.131Z,40.28
2019-02-21T14:06:03.580Z,40.58
2019-02-21T14:10:08.742Z,40.86
2019-02-21T14:14:16.999Z,41.24
2019-02-21T14:18:24.819Z,41.09
2019-02-21T14:22:32.537Z,40.88
2019-02-21T14:26:41.665Z,41.73
2019-02-21T14:30:49.714Z,41.32
2019-02-21T14:34:57.428Z,41.68
2019-02-21T14:39:06.588Z,42.06
2019-02-21T14:43:17.059Z,42.49
2019-02-21T14:47:24.807Z,43.08
2019-02-21T14:51:33.057Z,42.60
2019-02-21T14:55:41.052Z,43.39
2019-02-21T14:59:48.615Z,43.53
2019-02-21T15:03:56.680Z,43.66
2019-02-21T15:08:04.432Z,43.77
2019-02-21T15:12:12.602Z,43.79
2019-02-21T15:16:20.537Z,43.78
2019-02-21T15:20:36.299Z,44.31
2019-02-21T15:24:37.850Z,44.50
2019-02-21T15:28:46.092Z,44.85
2019-02-21T15:32:53.805Z,45.13
2019-02-21T15:37:02.094Z,44.58
2019-02-21T15:41:10.116Z,45.34
2019-02-21T15:45:23.367Z,46.43
2019-02-21T15:49:29.375Z,46.95
2019-02-21T15:53:37.700Z,46.79
2019-02-21T15:57:46.552Z,48.40
2019-02-21T16:01:54.609Z,47.71
2019-02-21T16:06:02.332Z,47.33
2019-02-21T16:10:12.207Z,48.73
2019-02-21T16:14:20.492Z,48.63
2019-02-21T16:18:28.167Z,49.36
2019-02-21T16:22:37.231Z,49.42
2019-02-21T16:26:45.557Z,50.07
2019-02-21T16:30:53.361Z,50.29
2019-02-21T16:35:01.482Z,49.37
2019-02-21T16:39:10.529Z,48.94
2019-02-21T16:43:18.635Z,49.29
2019-02-21T16:47:26.647Z,50.85
2019-02-21T16:51:34.789Z,50.90
2019-02-21T16:55:42.581Z,50.56
2019-02-21T16:59:51.224Z,49.83
2019-02-21T17:03:59.022Z,49.96
2019-02-21T17:08:06.802Z,50.65
2019-02-21T17:12:14.995Z,51.89
2019-02-21T17:16:22.609Z,52.06
2019-02-21T17:20:30.334Z,51.84
2019-02-21T17:24:38.408Z,51.08
2019-02-21T17:28:46.280Z,50.67
2019-02-21T17:32:54.315Z,51.87
2019-02-21T17:37:02.596Z,51.97
2019-02-21T17:41:10.346Z,51.01
2019-02-21T17:45:19.437Z,51.26
2019-02-21T17:49:30.135Z,52.41
2019-02-21T17:53:39.004Z,53.12
2019-02-21T17:57:53.008Z,54.24
2019-02-21T18:02:01.614Z,54.63
2019-02-21T18:06:09.359Z,54.59
2019-02-21T18:10:18.039Z,53.77
2019-02-21T18:14:26.312Z,53.48
2019-02-21T18:18:34.100Z,54.20
2019-02-21T18:22:41.937Z,54.26
2019-02-21T18:26:51.045Z,54.22
2019-02-21T18:30:58.947Z,53.85
2019-02-21T18:35:07.414Z,54.33
2019-02-21T18:39:15.882Z,53.50
2019-02-21T18:43:24.017Z,53.45
2019-02-21T18:47:32.155Z,54.22
2019-02-21T18:51:39.858Z,55.37
2019-02-21T18:55:47.767Z,55.18
2019-02-21T18:59:56.519Z,54.44
2019-02-21T19:04:04.605Z,54.44
2019-02-21T19:08:14.025Z,55.09
2019-02-21T19:12:21.892Z,55.58
2019-02-21T19:16:29.875Z,56.48
2019-02-21T19:20:38.372Z,56.40
2019-02-21T19:24:46.307Z,56.31
2019-02-21T19:28:54.967Z,55.74
2019-02-21T19:33:03.134Z,54.60
2019-02-21T19:37:11.316Z,55.40
2019-02-21T19:41:20.068Z,55.64
2019-02-21T19:45:29.267Z,55.17
2019-02-21T19:49:37.533Z,56.11
2019-02-21T19:53:45.733Z,56.72
2019-02-21T19:57:53.509Z,56.55
2019-02-21T20:02:01.846Z,56.67
2019-02-21T20:06:09.656Z,56.13
2019-02-21T20:10:18.680Z,56.67
2019-02-21T20:14:26.893Z,57.64
2019-02-21T20:18:34.732Z,57.30
2019-02-21T20:22:42.927Z,57.22
2019-02-21T20:26:51.154Z,58.33
2019-02-21T20:30:58.825Z,58.07
2019-02-21T20:35:07.399Z,58.06
2019-02-21T20:39:15.397Z,58.03
2019-02-21T20:43:23.309Z,57.45
2019-02-21T20:47:31.181Z,58.09
2019-02-21T20:51:39.150Z,56.94
2019-02-21T20:55:47.267Z,57.21
2019-02-21T20:59:55.672Z,57.82
2019-02-21T21:04:04.086Z,57.64
2019-02-21T21:08:11.750Z,57.79
2019-02-21T21:12:19.914Z,56.88
2019-02-21T21:16:27.993Z,56.77
2019-02-21T21:20:35.758Z,56.89
2019-02-21T21:24:44.066Z,58.22
2019-02-21T21:28:51.867Z,58.37
2019-02-21T21:32:59.688Z,58.34
2019-02-21T21:37:07.693Z,58.43
2019-02-21T21:41:15.643Z,59.59
2019-02-21T21:45:23.548Z,59.36
2019-02-21T21:49:31.458Z,59.23
2019-02-21T21:53:39.157Z,58.86
2019-02-21T21:57:48.702Z,59.93
2019-02-21T22:01:57.103Z,60.23
2019-02-21T22:06:05.253Z,59.07
2019-02-21T22:10:14.150Z,59.15
2019-02-21T22:14:22.954Z,59.00
2019-02-21T22:18:30.645Z,59.58
2019-02-21T22:22:38.780Z,59.68
2019-02-21T22:26:46.993Z,60.35
2019-02-21T22:30:54.785Z,60.18
2019-02-21T22:35:02.832Z,60.00
2019-02-21T22:39:16.436Z,60.19
2019-02-21T22:43:20.606Z,60.42
2019-02-21T22:47:28.912Z,60.00
2019-02-21T22:51:37.008Z,59.99
2019-02-21T22:55:44.912Z,60.53
2019-02-21T22:59:53.240Z,60.90
2019-02-21T23:04:54.889Z,60.42
2019-02-21T23:09:02.865Z,60.69
2019-02-21T23:13:12.712Z,60.57
2019-02-21T23:17:20.634Z,59.84
2019-02-21T23:21:28.919Z,60.43
2019-02-21T23:25:37.033Z,61.12
2019-02-21T23:29:44.853Z,60.92
2019-02-21T23:33:56.828Z,60.56
2019-02-21T23:38:04.749Z,60.56
2019-02-21T23:42:12.559Z,60.70
2019-02-21T23:46:20.781Z,61.52
2019-02-21T23:50:28.588Z,61.25
2019-02-21T23:54:36.901Z,60.73
2019-02-21T23:58:45.229Z,61.62
